Time;durP1;ratioP1;P1;durP2;ratioP2;P2;SDS_P1;SDS_P2;PMS_P1;PMS_P2;Temp;Humidity;BMP_temperature;BMP_pressure;BME280_temperature;BME280_humidity;BME280_pressure;Samples;Min_cycle;Max_cycle;Signal;HPM_P1;HPM_P2
2022/01/12 00:01:12;;;;;;;11.30;6.37;;;;;;;0.66;62.76;102142.44;4974899;28;20635;-79
2022/01/12 00:03:38;;;;;;;12.33;7.00;;;;;;;0.64;62.51;102133.69;4974984;28;20229;-79
2022/01/12 00:06:06;;;;;;;10.10;6.03;;;;;;;0.65;62.13;102139.66;4974780;28;20184;-80
2022/01/12 00:08:33;;;;;;;10.23;6.60;;;;;;;0.46;61.69;102104.03;4974534;28;20704;-78
2022/01/12 00:11:02;;;;;;;14.17;6.80;;;;;;;0.60;62.64;102143.09;4957195;28;20614;-79
2022/01/12 00:13:28;;;;;;;12.27;6.20;;;;;;;0.62;62.59;102145.19;4974601;28;20188;-79
2022/01/12 00:15:54;;;;;;;10.37;6.27;;;;;;;0.65;62.52;102148.16;4973838;28;20193;-79
2022/01/12 00:18:20;;;;;;;11.87;6.80;;;;;;;0.68;62.84;102151.13;4974463;28;20214;-79
2022/01/12 00:20:49;;;;;;;9.03;6.23;;;;;;;0.51;63.18;102126.56;4974989;28;20567;-79
2022/01/12 00:23:15;;;;;;;10.07;6.60;;;;;;;0.63;63.02;102163.75;4974452;28;20174;-78
2022/01/12 00:25:57;;;;;;;10.13;6.60;;;;;;;0.60;63.26;102169.22;4974709;28;20185;-78
2022/01/12 00:33:54;;;;;;;10.33;6.57;;;;;;;0.59;64.09;102172.44;4974863;28;20762;-78
2022/01/12 00:36:20;;;;;;;12.13;7.33;;;;;;;0.60;63.57;102163.28;4957063;28;20272;-79
2022/01/12 00:38:45;;;;;;;11.13;6.57;;;;;;;0.51;63.77;102145.13;4974592;28;20373;-78
2022/01/12 00:41:11;;;;;;;10.80;6.27;;;;;;;0.59;64.06;102158.88;4974797;28;20869;-79
2022/01/12 00:43:41;;;;;;;11.13;6.57;;;;;;;0.54;63.31;102154.75;4974434;28;20182;-79
2022/01/12 00:46:07;;;;;;;11.23;6.67;;;;;;;0.59;63.37;102162.38;4957877;28;20669;-79
2022/01/12 00:48:36;;;;;;;11.50;6.43;;;;;;;0.61;63.35;102173.59;4956787;28;20273;-78
2022/01/12 00:51:03;;;;;;;11.73;6.27;;;;;;;0.61;63.33;102172.66;4973477;28;20225;-78
2022/01/12 00:53:29;;;;;;;12.30;6.83;;;;;;;0.63;62.90;102166.28;4957286;28;20214;-78
2022/01/12 00:55:56;;;;;;;10.67;6.70;;;;;;;0.59;62.85;102166.47;4974224;28;20197;-78
2022/01/12 00:58:22;;;;;;;14.27;7.20;;;;;;;0.60;62.90;102161.66;4973919;28;20209;-80
2022/01/12 01:00:48;;;;;;;11.37;6.97;;;;;;;0.55;62.74;102146.50;4956758;28;20182;-79
2022/01/12 01:03:14;;;;;;;12.53;6.90;;;;;;;0.61;62.84;102155.00;4973913;28;20249;-80
2022/01/12 01:05:40;;;;;;;13.07;6.93;;;;;;;0.60;62.37;102163.28;4973813;28;20182;-79
2022/01/12 01:08:06;;;;;;;13.70;7.50;;;;;;;0.50;62.56;102170.09;4974167;28;20185;-78
2022/01/12 01:10:44;;;;;;;14.30;7.40;;;;;;;0.53;62.30;102161.41;4973562;28;20236;-80
2022/01/12 01:13:10;;;;;;;12.80;6.83;;;;;;;0.42;61.49;102159.75;4974000;28;20628;-80
2022/01/12 01:15:55;;;;;;;11.57;6.73;;;;;;;0.43;61.58;102165.69;4973554;28;20559;-78
2022/01/12 01:26:38;;;;;;;12.17;6.93;;;;;;;0.39;62.44;102181.06;4973632;28;20697;-79
2022/01/12 01:29:04;;;;;;;12.07;6.90;;;;;;;0.26;61.31;102163.13;4973671;28;20618;-80
2022/01/12 01:31:32;;;;;;;14.17;6.67;;;;;;;0.33;61.97;102192.72;4974002;28;20202;-79
2022/01/12 01:34:05;;;;;;;12.00;6.87;;;;;;;0.30;61.55;102184.66;4973697;28;20178;-79
2022/01/12 01:36:32;;;;;;;10.80;7.27;;;;;;;0.29;61.18;102187.88;4973820;28;20193;-80
2022/01/12 01:38:58;;;;;;;12.60;6.40;;;;;;;0.30;61.24;102187.19;4974100;28;20206;-80
2022/01/12 01:41:23;;;;;;;11.27;6.80;;;;;;;0.29;60.47;102186.28;4956129;28;20272;-81
2022/01/12 01:54:53;;;;;;;9.23;5.33;;;;;;;0.21;59.67;102191.72;4954425;28;20665;-79
2022/01/12 01:57:20;;;;;;;10.03;5.63;;;;;;;0.01;59.43;102150.81;4972976;28;20216;-80
2022/01/12 01:59:46;;;;;;;6.73;4.47;;;;;;;0.24;58.77;102194.72;4973323;28;20177;-78
2022/01/12 02:02:14;;;;;;;9.93;5.23;;;;;;;0.10;58.92;102169.91;4972954;28;20693;-77
2022/01/12 02:04:40;;;;;;;15.97;5.90;;;;;;;0.12;59.10;102171.03;4955939;28;20185;-78
2022/01/12 02:07:06;;;;;;;9.77;4.77;;;;;;;0.30;58.91;102188.09;4955416;28;20186;-78
2022/01/12 02:09:34;;;;;;;12.73;5.70;;;;;;;0.06;58.31;102146.47;4973599;28;20760;-79
2022/01/12 02:12:01;;;;;;;12.33;5.40;;;;;;;0.25;58.36;102190.59;4972875;28;20229;-79
2022/01/12 02:14:28;;;;;;;9.30;4.97;;;;;;;0.15;58.57;102168.06;4956758;28;20181;-79
2022/01/12 02:17:03;;;;;;;9.50;5.33;;;;;;;0.32;58.64;102193.41;4973728;28;20232;-77
2022/01/12 02:36:14;;;;;;;8.80;4.60;;;;;;;0.21;58.45;102215.31;4973002;28;20173;-80
2022/01/12 02:41:25;;;;;;;11.17;5.17;;;;;;;0.06;58.70;102201.94;4973803;28;20226;-78
2022/01/12 02:54:41;;;;;;;7.77;4.20;;;;;;;0.22;57.47;102234.84;4974961;28;20690;-79
2022/01/12 02:57:06;;;;;;;9.20;4.57;;;;;;;0.24;57.45;102235.06;4975197;28;20194;-80
2022/01/12 02:59:32;;;;;;;7.77;4.53;;;;;;;-0.08;57.88;102177.09;4958100;28;20197;-78
2022/01/12 03:04:28;;;;;;;6.53;4.33;;;;;;;0.29;56.79;102244.28;4974558;28;20577;-78
2022/01/12 03:07:03;;;;;;;9.63;3.87;;;;;;;0.21;54.61;102240.53;4973439;28;20166;-77
2022/01/12 03:09:28;;;;;;;6.43;3.67;;;;;;;0.12;54.12;102244.13;4972927;28;20194;-80
2022/01/12 03:11:54;;;;;;;6.83;4.20;;;;;;;0.13;53.88;102246.00;4973327;28;20230;-78
2022/01/12 03:14:19;;;;;;;6.50;3.83;;;;;;;0.11;53.39;102243.91;4975551;28;20287;-78
2022/01/12 03:16:45;;;;;;;6.33;3.73;;;;;;;0.09;53.01;102242.75;4976459;28;20280;-79
2022/01/12 03:19:10;;;;;;;7.10;4.57;;;;;;;0.07;53.08;102251.69;4977220;28;20241;-78
2022/01/12 03:21:36;;;;;;;6.50;4.20;;;;;;;0.06;53.10;102243.16;4976052;28;20565;-79
2022/01/12 03:24:03;;;;;;;6.67;4.43;;;;;;;0.04;53.23;102238.59;4977626;28;20270;-81
2022/01/12 03:26:29;;;;;;;7.73;4.97;;;;;;;0.03;53.02;102242.69;4977477;28;20178;-79
2022/01/12 03:28:58;;;;;;;9.70;4.27;;;;;;;-0.07;53.35;102229.34;4975813;28;20564;-78
2022/01/12 03:31:30;;;;;;;5.10;3.77;;;;;;;-0.03;53.50;102244.28;4959158;28;20186;-78
2022/01/12 03:34:05;;;;;;;6.87;4.60;;;;;;;-0.04;52.85;102250.88;4977957;28;20162;-80
2022/01/12 03:36:43;;;;;;;6.00;4.20;;;;;;;-0.10;52.98;102254.97;4978978;28;20166;-80
2022/01/12 03:39:13;;;;;;;8.17;4.30;;;;;;;-0.10;53.12;102252.44;4976786;28;20180;-79
2022/01/12 03:41:41;;;;;;;7.30;4.63;;;;;;;-0.37;53.19;102226.34;4976578;28;20198;-80
2022/01/12 03:44:10;;;;;;;8.43;4.33;;;;;;;-0.16;53.52;102243.00;4976986;28;20182;-79
2022/01/12 03:46:44;;;;;;;6.43;4.00;;;;;;;-0.11;54.10;102252.22;4976848;28;20694;-79
2022/01/12 03:49:09;;;;;;;8.17;4.70;;;;;;;-0.14;54.23;102254.25;4976612;28;20210;-78
2022/01/12 03:51:35;;;;;;;7.20;4.37;;;;;;;-0.10;54.08;102261.59;4976701;28;20178;-80
2022/01/12 03:54:00;;;;;;;6.03;4.03;;;;;;;-0.04;54.10;102267.63;4976966;28;20171;-78
2022/01/12 03:56:26;;;;;;;6.73;4.57;;;;;;;-0.05;53.86;102264.19;4975315;28;20662;-80
2022/01/12 03:58:51;;;;;;;6.67;4.40;;;;;;;0.00;53.64;102269.97;4974997;28;20201;-79
2022/01/12 04:01:17;;;;;;;9.07;4.27;;;;;;;-0.03;53.96;102264.44;4974993;28;20381;-79
2022/01/12 04:03:46;;;;;;;8.03;4.73;;;;;;;-0.10;53.83;102251.53;4974928;28;20174;-79
2022/01/12 04:08:56;;;;;;;6.87;4.23;;;;;;;0.04;53.43;102271.38;4974639;28;20601;-78
2022/01/12 04:11:22;;;;;;;8.27;5.87;;;;;;;-0.42;53.67;102186.91;4974612;28;20233;-80
2022/01/12 04:13:49;;;;;;;29.87;12.63;;;;;;;0.08;53.36;102276.19;4974909;28;20296;-79
2022/01/12 04:16:16;;;;;;;10.60;6.10;;;;;;;0.06;53.23;102280.06;4974646;28;20651;-79
2022/01/12 04:18:42;;;;;;;8.83;4.93;;;;;;;-0.07;53.72;102249.50;4974656;28;20209;-79
2022/01/12 04:21:09;;;;;;;10.70;4.70;;;;;;;0.04;53.68;102277.31;4957568;28;20174;-79
2022/01/12 04:23:37;;;;;;;9.73;5.33;;;;;;;-0.02;54.02;102273.81;4974991;28;20232;-80
2022/01/12 04:26:10;;;;;;;7.90;4.90;;;;;;;-0.02;53.82;102268.78;4956153;28;20268;-78
2022/01/12 04:28:39;;;;;;;9.00;5.83;;;;;;;-0.11;53.66;102257.25;4974127;28;20203;-81
2022/01/12 04:31:05;;;;;;;9.10;5.07;;;;;;;0.04;53.80;102277.31;4974307;28;20185;-79
2022/01/12 04:33:31;;;;;;;13.70;5.13;;;;;;;0.06;53.76;102288.53;4974127;28;20273;-79
2022/01/12 04:35:57;;;;;;;9.63;5.50;;;;;;;0.06;53.42;102293.56;4956425;28;20322;-80
2022/01/12 04:38:27;;;;;;;37.37;18.40;;;;;;;0.07;53.39;102285.38;4974454;28;20237;-80
2022/01/12 04:40:52;;;;;;;15.70;8.53;;;;;;;0.10;53.56;102288.38;4973962;28;20661;-75
2022/01/12 04:43:19;;;;;;;17.37;7.77;;;;;;;0.10;53.74;102293.41;4973826;28;20178;-78
2022/01/12 04:50:48;;;;;;;10.13;6.53;;;;;;;-0.04;53.50;102271.03;4959723;28;20206;-76
2022/01/12 04:53:14;;;;;;;12.63;6.57;;;;;;;0.09;52.76;102311.72;4989381;28;20216;-78
2022/01/12 04:55:41;;;;;;;9.07;5.67;;;;;;;-0.01;53.03;102299.25;4987176;28;20234;-76
2022/01/12 04:58:07;;;;;;;12.43;6.53;;;;;;;-0.01;52.99;102309.34;4986651;28;20202;-75
2022/01/12 05:00:34;;;;;;;9.60;5.30;;;;;;;0.03;53.09;102323.34;4983511;28;20178;-75
2022/01/12 05:13:43;;;;;;;11.97;6.67;;;;;;;0.26;53.58;102321.94;4979116;28;20798;-76
2022/01/12 05:16:12;;;;;;;10.13;6.27;;;;;;;0.19;52.72;102317.53;4982227;28;20194;-74
2022/01/12 05:18:41;;;;;;;10.73;6.70;;;;;;;0.10;52.72;102279.88;4982701;28;20233;-74
2022/01/12 05:21:07;;;;;;;16.23;7.90;;;;;;;0.30;53.27;102323.34;4977868;28;20194;-77
2022/01/12 05:23:34;;;;;;;11.57;7.20;;;;;;;0.18;52.99;102299.66;4978084;28;20175;-73
2022/01/12 05:26:00;;;;;;;12.33;6.77;;;;;;;0.36;52.55;102327.75;4979686;28;20180;-76
2022/01/12 05:28:26;;;;;;;17.60;8.73;;;;;;;0.38;53.38;102341.53;4977491;28;20202;-77
2022/01/12 05:30:53;;;;;;;17.77;10.27;;;;;;;0.37;53.42;102328.66;4976348;28;20582;-77
2022/01/12 05:33:22;;;;;;;14.20;7.20;;;;;;;0.33;53.19;102322.22;4958382;28;20190;-77
2022/01/12 05:35:47;;;;;;;13.23;6.73;;;;;;;0.46;52.81;102345.25;4975519;28;20185;-78
2022/01/12 05:38:14;;;;;;;13.17;7.23;;;;;;;0.29;53.36;102311.44;4975894;28;20293;-79
2022/01/12 05:40:41;;;;;;;12.40;6.70;;;;;;;0.54;53.03;102346.47;4975976;28;20181;-79
2022/01/12 05:43:08;;;;;;;11.37;6.90;;;;;;;0.52;53.02;102358.81;4976685;28;20178;-77
2022/01/12 05:45:37;;;;;;;15.70;7.43;;;;;;;0.24;53.28;102295.56;4975356;28;20170;-78
2022/01/12 05:50:39;;;;;;;20.57;7.67;;;;;;;0.67;58.94;102358.69;4972897;28;20162;-76
2022/01/12 05:53:04;;;;;;;17.53;6.83;;;;;;;0.63;60.71;102327.72;4973448;28;20189;-75
2022/01/12 05:55:30;;;;;;;11.73;6.90;;;;;;;1.10;61.82;102356.91;4973273;28;20178;-76
2022/01/12 05:57:56;;;;;;;12.60;6.70;;;;;;;1.30;56.91;102363.41;4972338;28;20198;-75
2022/01/12 06:00:23;;;;;;;12.43;6.90;;;;;;;1.45;62.74;102362.31;4972946;28;20209;-75
2022/01/12 06:02:51;;;;;;;10.90;6.90;;;;;;;1.60;55.31;102373.88;4972563;28;20212;-77
2022/01/12 06:05:19;;;;;;;13.87;7.63;;;;;;;1.76;66.88;102361.97;4972856;28;20197;-75
2022/01/12 06:07:51;;;;;;;13.33;6.83;;;;;;;1.84;63.39;102371.66;4972402;28;20580;-76
2022/01/12 06:10:21;;;;;;;14.17;7.50;;;;;;;1.91;58.70;102368.44;4972284;28;20305;-78
2022/01/12 06:12:47;;;;;;;12.63;6.97;;;;;;;1.96;62.34;102373.50;4972116;28;20537;-76
2022/01/12 06:15:12;;;;;;;11.40;6.93;;;;;;;1.97;55.29;102375.34;4972197;28;20170;-74
2022/01/12 06:17:38;;;;;;;13.97;7.13;;;;;;;2.01;55.42;102381.78;4972234;28;20596;-76
2022/01/12 06:20:05;;;;;;;13.27;7.30;;;;;;;1.91;58.28;102371.88;4972863;28;20170;-75
2022/01/12 06:22:31;;;;;;;14.80;7.27;;;;;;;1.92;58.40;102375.31;4972616;28;20241;-75
2022/01/12 06:24:58;;;;;;;14.87;8.30;;;;;;;1.94;59.21;102384.06;4971788;28;20182;-75
2022/01/12 06:27:28;;;;;;;13.20;7.90;;;;;;;1.69;56.01;102354.16;4971977;28;20222;-75
2022/01/12 06:32:37;;;;;;;12.63;6.90;;;;;;;1.93;58.16;102405.91;4972690;28;20172;-76
2022/01/12 06:35:03;;;;;;;12.80;8.00;;;;;;;1.71;59.22;102362.88;4972527;28;20259;-77
2022/01/12 06:37:29;;;;;;;15.00;7.87;;;;;;;1.88;54.86;102401.75;4974247;28;20228;-77
2022/01/12 06:39:54;;;;;;;12.40;7.63;;;;;;;1.58;51.22;102382.81;4976042;28;20265;-79
2022/01/12 06:42:20;;;;;;;12.20;7.63;;;;;;;1.54;50.81;102421.84;4975434;28;20175;-78
2022/01/12 06:44:47;;;;;;;15.07;7.37;;;;;;;1.40;51.16;102416.25;4975227;28;20177;-77
2022/01/12 06:47:13;;;;;;;10.77;6.73;;;;;;;1.29;50.86;102417.13;4973005;28;20194;-77
2022/01/12 06:49:38;;;;;;;12.20;7.63;;;;;;;1.17;51.13;102425.34;4974878;28;20181;-77
2022/01/12 06:52:05;;;;;;;11.50;7.40;;;;;;;1.06;50.30;102426.19;4976643;28;20187;-77
2022/01/12 06:54:30;;;;;;;13.50;7.13;;;;;;;0.96;49.84;102427.03;4976334;28;20564;-78
2022/01/12 06:56:56;;;;;;;12.27;7.70;;;;;;;0.67;50.39;102393.09;4979457;28;20194;-76
2022/01/12 06:59:21;;;;;;;14.40;7.73;;;;;;;0.81;49.60;102433.09;4981145;28;20190;-78
2022/01/12 07:01:47;;;;;;;13.70;7.20;;;;;;;0.72;49.90;102427.56;4980102;28;20181;-76
2022/01/12 07:04:12;;;;;;;14.33;7.40;;;;;;;0.65;49.50;102430.72;4981965;28;20604;-77
2022/01/12 07:06:38;;;;;;;13.13;6.90;;;;;;;0.43;50.06;102420.41;4981266;28;20273;-77
2022/01/12 07:09:06;;;;;;;12.50;7.40;;;;;;;0.52;50.08;102443.66;4978452;28;20260;-79
2022/01/12 07:11:32;;;;;;;13.43;7.33;;;;;;;0.50;50.47;102443.44;4978075;28;20320;-76
2022/01/12 07:13:57;;;;;;;15.27;7.47;;;;;;;0.37;50.70;102427.94;4976069;28;20261;-77
2022/01/12 07:16:23;;;;;;;13.23;7.47;;;;;;;0.46;50.93;102436.03;4975641;28;20194;-76
2022/01/12 07:18:49;;;;;;;15.17;7.17;;;;;;;0.46;51.14;102447.03;4975046;28;20208;-76
2022/01/12 07:21:16;;;;;;;11.37;7.10;;;;;;;0.49;51.34;102443.19;4976284;28;20181;-75
2022/01/12 07:23:41;;;;;;;13.03;7.47;;;;;;;0.35;50.92;102429.31;4957915;28;20252;-78
2022/01/12 07:26:08;;;;;;;13.67;7.07;;;;;;;0.46;50.88;102452.09;4975552;28;20654;-76
2022/01/12 07:28:34;;;;;;;13.47;7.23;;;;;;;0.10;50.98;102375.69;4975268;28;20182;-76
2022/01/12 07:30:59;;;;;;;15.50;7.60;;;;;;;0.55;51.06;102460.19;4975410;28;20182;-77
2022/01/12 07:33:25;;;;;;;13.63;8.70;;;;;;;0.57;50.83;102460.47;4975429;28;20446;-77
2022/01/12 07:35:52;;;;;;;11.83;7.40;;;;;;;0.58;50.17;102452.22;4958228;28;20182;-77
2022/01/12 07:38:18;;;;;;;16.07;9.57;;;;;;;0.42;50.70;102433.72;4975550;28;20205;-78
2022/01/12 07:40:43;;;;;;;22.67;9.97;;;;;;;0.50;50.72;102443.44;4975404;28;20181;-78
2022/01/12 07:43:09;;;;;;;16.97;7.70;;;;;;;0.53;50.71;102460.63;4975479;28;20651;-77
2022/01/12 07:45:36;;;;;;;28.93;12.17;;;;;;;0.53;50.56;102454.00;4975106;28;20638;-77
2022/01/12 07:48:02;;;;;;;14.50;6.97;;;;;;;0.60;50.20;102459.34;4975053;28;20592;-76
2022/01/12 07:50:27;;;;;;;17.37;7.77;;;;;;;0.60;50.41;102461.88;4957659;28;20186;-77
2022/01/12 07:52:53;;;;;;;12.40;6.90;;;;;;;0.65;49.50;102468.56;4974764;28;20611;-78
2022/01/12 07:55:23;;;;;;;15.60;8.47;;;;;;;0.41;49.92;102430.28;4975151;28;20184;-78
2022/01/12 07:57:50;;;;;;;18.67;9.00;;;;;;;0.64;49.66;102468.31;4957922;28;20209;-76
2022/01/12 08:00:17;;;;;;;17.40;9.40;;;;;;;0.58;49.77;102462.28;4973345;28;20186;-77
2022/01/12 08:02:42;;;;;;;14.00;8.13;;;;;;;0.70;49.76;102479.38;4974881;28;20609;-76
2022/01/12 08:05:09;;;;;;;17.70;8.60;;;;;;;0.72;49.54;102482.13;4974529;28;20174;-76
2022/01/12 08:07:36;;;;;;;20.30;9.70;;;;;;;0.73;49.66;102484.00;4974519;28;20205;-77
2022/01/12 08:10:04;;;;;;;29.93;11.13;;;;;;;0.75;49.05;102481.03;4974362;28;20166;-78
2022/01/12 08:12:30;;;;;;;14.57;8.40;;;;;;;0.72;49.20;102479.59;4974464;28;20283;-77
2022/01/12 08:14:55;;;;;;;13.33;7.03;;;;;;;0.72;49.01;102477.06;4974801;28;20194;-77
2022/01/12 08:17:21;;;;;;;11.27;6.80;;;;;;;0.73;49.13;102489.03;4974238;28;20284;-77
2022/01/12 08:19:46;;;;;;;14.23;8.07;;;;;;;0.62;48.58;102468.09;4974456;28;20182;-76
2022/01/12 08:22:12;;;;;;;11.60;6.77;;;;;;;0.71;49.01;102486.25;4974787;28;20185;-77
2022/01/12 08:24:37;;;;;;;25.60;11.20;;;;;;;0.77;48.53;102489.75;4974690;28;20181;-78
2022/01/12 08:27:03;;;;;;;15.87;8.47;;;;;;;0.77;48.86;102482.19;4974340;28;20688;-77
2022/01/12 08:29:29;;;;;;;14.67;7.87;;;;;;;0.83;48.37;102494.84;4974335;28;20567;-79
2022/01/12 08:31:55;;;;;;;13.13;7.33;;;;;;;0.68;48.80;102463.06;4973941;28;20552;-76
2022/01/12 08:34:21;;;;;;;12.37;7.13;;;;;;;0.94;48.94;102501.63;4974083;28;20182;-76
2022/01/12 08:36:47;;;;;;;16.67;8.03;;;;;;;1.00;49.07;102492.44;4956654;28;20178;-76
2022/01/12 08:39:12;;;;;;;12.83;7.80;;;;;;;1.06;48.78;102499.41;4973765;28;20213;-77
2022/01/12 08:41:38;;;;;;;12.27;6.90;;;;;;;1.09;48.10;102488.84;4974381;28;20182;-76
2022/01/12 08:44:06;;;;;;;11.03;6.83;;;;;;;1.14;48.46;102500.59;4973952;28;20178;-76
2022/01/12 08:46:32;;;;;;;12.83;6.97;;;;;;;1.10;48.67;102493.25;4974050;28;20178;-78
2022/01/12 08:48:58;;;;;;;13.00;6.93;;;;;;;1.00;48.22;102469.72;4956626;28;20260;-77
2022/01/12 08:51:23;;;;;;;15.17;7.53;;;;;;;1.24;48.01;102506.41;4974177;28;20213;-77
2022/01/12 08:53:50;;;;;;;10.90;6.60;;;;;;;1.25;47.17;102507.34;4974025;28;20273;-78
2022/01/12 08:56:16;;;;;;;12.97;6.80;;;;;;;1.21;47.25;102505.91;4973101;28;20636;-77
2022/01/12 08:58:41;;;;;;;13.33;7.57;;;;;;;1.20;47.53;102494.00;4956465;28;20206;-78
2022/01/12 09:01:09;;;;;;;11.40;6.50;;;;;;;1.24;47.62;102485.28;4973377;28;20178;-77
2022/01/12 09:03:35;;;;;;;17.17;6.77;;;;;;;1.11;48.02;102454.69;4956344;28;20653;-76
2022/01/12 09:06:03;;;;;;;13.53;7.57;;;;;;;1.44;47.95;102511.16;4973577;28;20178;-76
2022/01/12 09:08:28;;;;;;;13.77;7.70;;;;;;;1.25;47.81;102461.91;4973280;28;20673;-76
2022/01/12 09:10:54;;;;;;;13.23;6.90;;;;;;;1.47;47.31;102501.53;4972756;28;20222;-77
2022/01/12 09:13:20;;;;;;;13.73;7.90;;;;;;;1.56;47.29;102500.44;4973398;28;20537;-75
2022/01/12 09:15:48;;;;;;;14.67;7.17;;;;;;;1.06;47.30;102408.53;4977035;28;20185;-76
2022/01/12 09:18:13;;;;;;;16.73;9.63;;;;;;;1.53;47.38;102484.78;4975107;28;20206;-77
2022/01/12 09:20:39;;;;;;;13.37;7.60;;;;;;;1.65;46.75;102501.81;4973132;28;20326;-77
2022/01/12 09:23:05;;;;;;;15.37;7.03;;;;;;;1.65;46.92;102511.03;4973089;28;20182;-77
2022/01/12 09:25:35;;;;;;;14.43;7.90;;;;;;;1.55;47.36;102485.94;4973298;28;20178;-75
2022/01/12 09:28:02;;;;;;;18.00;8.97;;;;;;;1.67;47.68;102503.00;4972999;28;20186;-76
2022/01/12 09:30:28;;;;;;;14.90;8.53;;;;;;;1.69;48.28;102499.13;4974188;28;20189;-75
2022/01/12 09:32:54;;;;;;;64.03;22.87;;;;;;;1.47;48.07;102446.88;4973244;28;20170;-77
2022/01/12 09:35:19;;;;;;;34.60;12.77;;;;;;;1.75;47.78;102500.06;4972762;28;20178;-77
2022/01/12 09:37:45;;;;;;;28.93;14.50;;;;;;;1.76;47.85;102495.91;4972722;28;20296;-77
2022/01/12 09:40:11;;;;;;;37.63;15.00;;;;;;;1.74;48.01;102499.81;4955563;28;20190;-78
2022/01/12 09:42:37;;;;;;;16.37;9.07;;;;;;;1.18;47.42;102394.34;4955588;28;20181;-77
2022/01/12 09:45:06;;;;;;;14.50;7.90;;;;;;;1.74;47.22;102498.19;4955626;28;20182;-76
2022/01/12 09:47:32;;;;;;;14.83;7.57;;;;;;;1.74;47.19;102494.75;4972866;28;20186;-77
2022/01/12 09:49:57;;;;;;;17.73;8.90;;;;;;;1.75;47.74;102489.03;4972524;28;20654;-77
2022/01/12 09:52:23;;;;;;;17.37;9.00;;;;;;;1.75;48.05;102487.41;4971430;28;20190;-77
2022/01/12 09:54:49;;;;;;;19.57;10.37;;;;;;;1.77;48.01;102473.41;4955097;28;20177;-76
2022/01/12 09:57:15;;;;;;;20.60;10.53;;;;;;;1.77;48.24;102473.41;4973807;28;20178;-75
2022/01/12 09:59:41;;;;;;;21.83;10.10;;;;;;;1.84;47.96;102480.34;4974333;28;20178;-76
2022/01/12 10:02:18;;;;;;;40.57;16.83;;;;;;;1.90;47.79;102482.88;4974729;28;20201;-78
2022/01/12 10:04:44;;;;;;;25.73;12.10;;;;;;;1.81;47.23;102463.09;4974230;28;20665;-77
2022/01/12 10:07:11;;;;;;;34.77;16.10;;;;;;;1.92;47.32;102472.31;4955919;28;20209;-76
2022/01/12 10:09:39;;;;;;;27.37;12.77;;;;;;;1.93;47.41;102475.75;4973431;28;20197;-77
2022/01/12 10:12:19;;;;;;;24.17;10.37;;;;;;;1.90;47.60;102453.47;4955573;28;20690;-76
2022/01/12 10:14:55;;;;;;;16.70;8.93;;;;;;;2.08;47.46;102478.09;4973007;28;20166;-77
2022/01/12 10:17:34;;;;;;;20.03;9.97;;;;;;;2.13;47.37;102476.31;4972851;28;20673;-77
2022/01/12 10:20:13;;;;;;;15.17;8.50;;;;;;;2.13;47.48;102469.63;4972598;28;20176;-76
2022/01/12 10:22:44;;;;;;;19.30;8.37;;;;;;;2.14;47.23;102470.53;4974034;28;20201;-77
2022/01/12 10:25:18;;;;;;;20.37;9.70;;;;;;;2.17;47.76;102463.44;4976844;28;20557;-78
2022/01/12 10:27:44;;;;;;;17.43;8.03;;;;;;;2.21;47.30;102461.63;4977059;28;20236;-78
2022/01/12 10:30:22;;;;;;;22.33;9.40;;;;;;;2.23;48.11;102465.28;4976411;28;20181;-76
2022/01/12 10:33:08;;;;;;;17.37;8.40;;;;;;;2.29;47.55;102468.75;4976462;28;20170;-76
2022/01/12 10:35:36;;;;;;;18.27;9.83;;;;;;;2.29;47.32;102460.22;4976133;28;20221;-78
2022/01/12 10:38:09;;;;;;;21.40;12.10;;;;;;;2.35;47.95;102478.88;4976164;28;20214;-78
2022/01/12 10:40:45;;;;;;;21.27;9.90;;;;;;;2.37;47.68;102462.34;4976026;28;20769;-77
2022/01/12 10:43:35;;;;;;;19.23;8.80;;;;;;;2.39;47.95;102460.00;4976750;28;20181;-76
2022/01/12 10:46:04;;;;;;;19.17;9.50;;;;;;;2.46;48.08;102458.66;4976350;28;20181;-78
2022/01/12 10:48:53;;;;;;;23.90;10.73;;;;;;;2.47;48.14;102460.50;4976119;28;20662;-77
2022/01/12 10:51:29;;;;;;;21.47;11.57;;;;;;;2.51;47.45;102459.34;4976275;28;20170;-77
2022/01/12 10:54:00;;;;;;;23.87;11.37;;;;;;;2.44;47.77;102432.19;4975981;28;20169;-77
2022/01/12 10:56:26;;;;;;;20.40;9.73;;;;;;;2.57;47.24;102452.69;4976076;28;20186;-76
2022/01/12 10:58:54;;;;;;;18.33;9.07;;;;;;;2.58;47.84;102454.50;4976130;28;20761;-77
2022/01/12 11:01:22;;;;;;;17.40;9.77;;;;;;;2.57;47.87;102452.69;4975952;28;20188;-75
2022/01/12 11:03:48;;;;;;;18.27;9.47;;;;;;;2.57;47.48;102461.88;4975623;28;20722;-77
2022/01/12 11:06:15;;;;;;;14.23;8.70;;;;;;;2.63;47.25;102457.75;4974079;28;20174;-75
2022/01/12 11:08:43;;;;;;;17.10;8.87;;;;;;;2.63;47.71;102456.13;4975662;28;20201;-79
2022/01/12 11:11:09;;;;;;;20.30;10.03;;;;;;;2.56;46.97;102442.34;4975407;28;20718;-77
2022/01/12 11:13:35;;;;;;;20.80;9.13;;;;;;;2.66;47.59;102443.03;4975856;28;20181;-77
2022/01/12 11:16:03;;;;;;;18.13;9.67;;;;;;;2.69;47.50;102443.47;4958140;28;20208;-78
2022/01/12 11:18:35;;;;;;;17.80;8.87;;;;;;;2.72;47.28;102451.53;4975756;28;20245;-76
2022/01/12 11:21:06;;;;;;;17.60;9.97;;;;;;;2.69;46.79;102446.00;4976053;28;20170;-78
2022/01/12 11:23:38;;;;;;;18.97;9.73;;;;;;;2.73;47.03;102461.88;4976684;28;20173;-77
2022/01/12 11:26:33;;;;;;;17.80;9.90;;;;;;;2.72;47.57;102449.00;4976779;28;20264;-77
2022/01/12 11:29:03;;;;;;;16.10;9.13;;;;;;;2.78;47.21;102455.00;4959346;28;20214;-74
2022/01/12 11:31:32;;;;;;;18.07;8.87;;;;;;;2.70;47.31;102463.94;4977548;28;20178;-75
2022/01/12 11:33:58;;;;;;;19.20;11.07;;;;;;;2.74;47.23;102457.72;4977296;28;20233;-73
2022/01/12 11:36:27;;;;;;;21.50;10.83;;;;;;;2.71;47.23;102445.56;4980940;28;20675;-75
2022/01/12 11:39:16;;;;;;;21.87;11.63;;;;;;;2.81;47.53;102452.00;4982732;28;20211;-77
2022/01/12 11:41:49;;;;;;;22.40;10.73;;;;;;;2.89;46.94;102449.91;4979112;28;20262;-76
2022/01/12 11:44:23;;;;;;;21.97;10.73;;;;;;;2.80;46.96;102435.88;4976700;28;20634;-76
2022/01/12 11:46:50;;;;;;;19.17;9.37;;;;;;;2.96;46.56;102462.81;4976795;28;20178;-77
2022/01/12 11:49:38;;;;;;;19.13;9.30;;;;;;;2.93;46.94;102466.50;4980986;28;20182;-76
2022/01/12 11:52:30;;;;;;;17.93;9.17;;;;;;;2.94;46.69;102459.13;4998027;28;20193;-76
2022/01/12 11:55:12;;;;;;;21.80;10.93;;;;;;;2.98;47.28;102456.34;4998872;28;20182;-77
2022/01/12 11:57:41;;;;;;;31.30;14.73;;;;;;;2.94;47.14;102449.00;4994676;28;20237;-76
2022/01/12 12:00:19;;;;;;;22.77;11.90;;;;;;;3.08;47.17;102467.84;4984811;28;20184;-78
2022/01/12 12:02:49;;;;;;;23.13;11.03;;;;;;;2.74;46.83;102424.81;4976673;28;20197;-78
2022/01/12 12:05:21;;;;;;;17.23;9.83;;;;;;;3.00;47.13;102451.53;4977046;28;20197;-78
2022/01/12 12:07:55;;;;;;;40.80;18.17;;;;;;;2.84;47.58;102422.09;4976412;28;20185;-79
2022/01/12 12:10:22;;;;;;;54.50;21.97;;;;;;;3.02;46.95;102452.66;4975667;28;20225;-77
2022/01/12 12:12:50;;;;;;;37.63;17.23;;;;;;;3.09;47.29;102464.63;4975194;28;20178;-76
2022/01/12 12:15:16;;;;;;;38.40;15.83;;;;;;;3.08;47.68;102456.09;4957874;28;20507;-78
2022/01/12 12:17:43;;;;;;;37.33;17.97;;;;;;;3.07;47.01;102458.41;4974550;28;20210;-78
2022/01/12 12:20:15;;;;;;;29.27;14.43;;;;;;;3.11;47.42;102458.16;4958989;28;20269;-80
2022/01/12 12:22:44;;;;;;;18.43;10.07;;;;;;;3.07;46.78;102466.94;4976579;28;20166;-80
2022/01/12 12:25:12;;;;;;;22.27;10.50;;;;;;;2.99;46.97;102473.41;4974617;28;20170;-76
2022/01/12 12:27:41;;;;;;;19.67;11.80;;;;;;;2.76;47.34;102472.47;4975109;28;20490;-76
2022/01/12 12:30:10;;;;;;;21.87;11.17;;;;;;;2.77;47.48;102475.91;4974454;28;20189;-75
2022/01/12 12:32:46;;;;;;;21.43;10.60;;;;;;;2.12;47.34;102366.63;4974350;28;20634;-75
2022/01/12 12:35:15;;;;;;;27.53;11.53;;;;;;;2.83;47.54;102469.25;4956860;28;20561;-75
2022/01/12 12:37:51;;;;;;;19.87;11.10;;;;;;;2.28;47.44;102367.34;4973291;28;20267;-76
2022/01/12 12:40:30;;;;;;;22.00;12.23;;;;;;;2.92;48.18;102483.28;4973011;28;20196;-74
2022/01/12 12:43:00;;;;;;;33.60;14.77;;;;;;;2.92;48.17;102480.75;4974303;28;20660;-76
2022/01/12 12:45:44;;;;;;;26.40;12.87;;;;;;;2.93;48.14;102469.94;4973782;28;20186;-74
2022/01/12 12:48:14;;;;;;;21.47;11.73;;;;;;;2.96;47.44;102478.00;4973858;28;20174;-74
2022/01/12 12:50:40;;;;;;;27.90;12.37;;;;;;;2.99;47.91;102482.56;4973700;28;20211;-75